sensor_id;sensor_type;location;lat;lon;timestamp;pressure;altitude;pressure_sealevel;temperature;humidity
71621;BME280;59471;42.254;23.102;2022-10-19T00:00:27;96555.44;;;4.94;65.22
71621;BME280;59471;42.254;23.102;2022-10-19T00:02:52;96555.13;;;4.87;66.46
71621;BME280;59471;42.254;23.102;2022-10-19T00:05:18;96551.41;;;5.01;65.43
71621;BME280;59471;42.254;23.102;2022-10-19T00:07:44;96551.22;;;5.14;64.54
71621;BME280;59471;42.254;23.102;2022-10-19T00:10:10;96554.59;;;5.04;65.37
71621;BME280;59471;42.254;23.102;2022-10-19T00:12:36;96551.09;;;4.62;66.32
71621;BME280;59471;42.254;23.102;2022-10-19T00:15:02;96550.84;;;4.65;66.55
71621;BME280;59471;42.254;23.102;2022-10-19T00:17:29;96558.09;;;4.82;65.60
71621;BME280;59471;42.254;23.102;2022-10-19T00:19:54;96557.16;;;4.83;65.96
71621;BME280;59471;42.254;23.102;2022-10-19T00:22:20;96554.16;;;4.67;66.25
71621;BME280;59471;42.254;23.102;2022-10-19T00:24:46;96550.84;;;4.65;66.23
71621;BME280;59471;42.254;23.102;2022-10-19T00:27:11;96549.03;;;4.45;67.16
71621;BME280;59471;42.254;23.102;2022-10-19T00:29:37;96546.59;;;4.64;65.93
71621;BME280;59471;42.254;23.102;2022-10-19T00:32:03;96548.22;;;4.76;65.84
71621;BME280;59471;42.254;23.102;2022-10-19T00:34:29;96546.78;;;4.72;65.89
71621;BME280;59471;42.254;23.102;2022-10-19T00:36:54;96542.50;;;4.50;66.09
71621;BME280;59471;42.254;23.102;2022-10-19T00:39:20;96538.44;;;4.25;67.61
71621;BME280;59471;42.254;23.102;2022-10-19T00:41:46;96538.53;;;4.35;67.45
71621;BME280;59471;42.254;23.102;2022-10-19T00:46:40;96525.22;;;4.39;67.10
71621;BME280;59471;42.254;23.102;2022-10-19T00:49:16;96517.22;;;4.31;67.33
71621;BME280;59471;42.254;23.102;2022-10-19T00:51:48;96510.72;;;4.37;67.00
71621;BME280;59471;42.254;23.102;2022-10-19T00:54:16;96511.63;;;4.47;67.27
71621;BME280;59471;42.254;23.102;2022-10-19T00:56:45;96504.72;;;4.36;67.37
71621;BME280;59471;42.254;23.102;2022-10-19T00:59:13;96500.28;;;4.16;67.97
71621;BME280;59471;42.254;23.102;2022-10-19T01:01:43;96495.97;;;4.37;67.63
71621;BME280;59471;42.254;23.102;2022-10-19T01:04:09;96499.19;;;4.62;67.01
71621;BME280;59471;42.254;23.102;2022-10-19T01:06:35;96489.81;;;4.50;66.84
71621;BME280;59471;42.254;23.102;2022-10-19T01:09:01;96491.03;;;4.34;67.47
71621;BME280;59471;42.254;23.102;2022-10-19T01:20:56;96493.00;;;4.10;68.04
71621;BME280;59471;42.254;23.102;2022-10-19T01:23:55;96484.94;;;4.24;67.83
71621;BME280;59471;42.254;23.102;2022-10-19T01:33:06;96480.78;;;4.01;68.73
71621;BME280;59471;42.254;23.102;2022-10-19T01:38:42;96468.16;;;4.07;67.86
71621;BME280;59471;42.254;23.102;2022-10-19T01:41:27;96470.53;;;4.31;67.23
71621;BME280;59471;42.254;23.102;2022-10-19T01:46:54;96476.41;;;4.45;66.53
71621;BME280;59471;42.254;23.102;2022-10-19T01:52:05;96459.03;;;4.13;67.39
71621;BME280;59471;42.254;23.102;2022-10-19T01:54:38;96462.72;;;4.10;67.46
71621;BME280;59471;42.254;23.102;2022-10-19T01:57:08;96458.56;;;3.76;68.59
71621;BME280;59471;42.254;23.102;2022-10-19T01:59:37;96457.59;;;3.88;68.42
71621;BME280;59471;42.254;23.102;2022-10-19T02:02:07;96447.09;;;3.78;68.43
71621;BME280;59471;42.254;23.102;2022-10-19T02:04:34;96454.19;;;3.76;68.89
71621;BME280;59471;42.254;23.102;2022-10-19T02:07:02;96458.91;;;3.82;69.01
71621;BME280;59471;42.254;23.102;2022-10-19T02:09:30;96456.09;;;4.50;66.11
71621;BME280;59471;42.254;23.102;2022-10-19T02:11:58;96449.63;;;4.76;64.76
71621;BME280;59471;42.254;23.102;2022-10-19T02:14:29;96455.09;;;3.98;67.75
71621;BME280;59471;42.254;23.102;2022-10-19T02:17:07;96458.91;;;3.82;68.96
71621;BME280;59471;42.254;23.102;2022-10-19T02:19:37;96454.25;;;4.08;68.30
71621;BME280;59471;42.254;23.102;2022-10-19T02:22:03;96451.56;;;3.87;68.61
71621;BME280;59471;42.254;23.102;2022-10-19T02:24:28;96453.47;;;3.85;69.07
71621;BME280;59471;42.254;23.102;2022-10-19T02:26:55;96447.63;;;3.72;69.58
71621;BME280;59471;42.254;23.102;2022-10-19T02:29:21;96453.28;;;3.66;69.89
71621;BME280;59471;42.254;23.102;2022-10-19T02:31:46;96456.34;;;3.48;70.08
71621;BME280;59471;42.254;23.102;2022-10-19T02:34:12;96450.88;;;3.74;70.06
71621;BME280;59471;42.254;23.102;2022-10-19T02:36:38;96456.75;;;3.87;68.60
71621;BME280;59471;42.254;23.102;2022-10-19T02:39:05;96449.22;;;3.84;68.26
71621;BME280;59471;42.254;23.102;2022-10-19T02:44:22;96456.75;;;3.87;68.92
71621;BME280;59471;42.254;23.102;2022-10-19T02:47:17;96454.34;;;3.41;70.63
71621;BME280;59471;42.254;23.102;2022-10-19T02:49:46;96448.81;;;3.57;69.83
71621;BME280;59471;42.254;23.102;2022-10-19T02:52:13;96459.28;;;3.66;69.68
71621;BME280;59471;42.254;23.102;2022-10-19T02:54:41;96463.16;;;3.61;69.42
71621;BME280;59471;42.254;23.102;2022-10-19T02:59:40;96450.44;;;3.46;69.68
71621;BME280;59471;42.254;23.102;2022-10-19T03:02:05;96452.78;;;3.72;68.97
71621;BME280;59471;42.254;23.102;2022-10-19T03:04:31;96454.19;;;3.76;68.48
71621;BME280;59471;42.254;23.102;2022-10-19T03:06:56;96453.28;;;3.66;68.75
71621;BME280;59471;42.254;23.102;2022-10-19T03:09:22;96454.28;;;3.86;68.38
71621;BME280;59471;42.254;23.102;2022-10-19T03:11:47;96451.63;;;3.42;69.41
71621;BME280;59471;42.254;23.102;2022-10-19T03:14:13;96457.03;;;3.39;70.28
71621;BME280;59471;42.254;23.102;2022-10-19T03:16:38;96452.78;;;3.49;70.22
71621;BME280;59471;42.254;23.102;2022-10-19T03:19:04;96453.75;;;3.60;69.89
71621;BME280;59471;42.254;23.102;2022-10-19T03:21:30;96444.56;;;3.67;69.11
71621;BME280;59471;42.254;23.102;2022-10-19T03:23:58;96449.03;;;3.42;70.26
71621;BME280;59471;42.254;23.102;2022-10-19T03:26:25;96446.13;;;4.02;67.43
71621;BME280;59471;42.254;23.102;2022-10-19T03:28:51;96445.72;;;3.74;68.83
71621;BME280;59471;42.254;23.102;2022-10-19T03:31:17;96445.47;;;3.88;68.59
71621;BME280;59471;42.254;23.102;2022-10-19T03:33:43;96446.53;;;4.29;67.29
71621;BME280;59471;42.254;23.102;2022-10-19T03:38:43;96451.16;;;3.48;69.86
71621;BME280;59471;42.254;23.102;2022-10-19T03:41:09;96448.09;;;3.55;70.06
71621;BME280;59471;42.254;23.102;2022-10-19T03:43:35;96450.47;;;3.35;71.06
71621;BME280;59471;42.254;23.102;2022-10-19T03:46:01;96450.81;;;3.42;70.68
71621;BME280;59471;42.254;23.102;2022-10-19T03:48:26;96444.09;;;3.51;70.88
71621;BME280;59471;42.254;23.102;2022-10-19T03:51:06;96456.56;;;3.68;70.50
71621;BME280;59471;42.254;23.102;2022-10-19T03:53:34;96448.78;;;4.23;68.92
71621;BME280;59471;42.254;23.102;2022-10-19T03:56:11;96451.00;;;4.27;68.01
71621;BME280;59471;42.254;23.102;2022-10-19T03:58:40;96453.09;;;3.90;69.59
71621;BME280;59471;42.254;23.102;2022-10-19T04:01:09;96445.91;;;3.93;69.63
71621;BME280;59471;42.254;23.102;2022-10-19T04:03:36;96446.38;;;3.99;69.31
71621;BME280;59471;42.254;23.102;2022-10-19T04:06:14;96446.63;;;3.84;69.22
71621;BME280;59471;42.254;23.102;2022-10-19T04:08:41;96444.31;;;3.70;70.26
71621;BME280;59471;42.254;23.102;2022-10-19T04:11:12;96448.44;;;3.72;69.97
71621;BME280;59471;42.254;23.102;2022-10-19T04:13:39;96448.06;;;4.21;68.30
71621;BME280;59471;42.254;23.102;2022-10-19T04:16:04;96446.31;;;4.21;67.42
71621;BME280;59471;42.254;23.102;2022-10-19T04:18:31;96442.44;;;3.72;69.60
71621;BME280;59471;42.254;23.102;2022-10-19T04:20:58;96445.13;;;3.70;68.43
71621;BME280;59471;42.254;23.102;2022-10-19T04:23:30;96437.38;;;4.14;66.67
71621;BME280;59471;42.254;23.102;2022-10-19T04:25:59;96438.56;;;3.66;67.34
71621;BME280;59471;42.254;23.102;2022-10-19T04:28:29;96440.34;;;3.32;69.09
71621;BME280;59471;42.254;23.102;2022-10-19T04:30:55;96439.34;;;2.88;70.48
71621;BME280;59471;42.254;23.102;2022-10-19T04:33:21;96437.72;;;3.21;68.84
71621;BME280;59471;42.254;23.102;2022-10-19T04:35:47;96434.44;;;2.96;71.07
71621;BME280;59471;42.254;23.102;2022-10-19T04:38:12;96438.66;;;3.09;70.96
71621;BME280;59471;42.254;23.102;2022-10-19T04:40:38;96439.28;;;3.12;71.21
71621;BME280;59471;42.254;23.102;2022-10-19T04:43:03;96438.69;;;3.20;70.76
71621;BME280;59471;42.254;23.102;2022-10-19T04:45:29;96436.09;;;3.54;69.74
71621;BME280;59471;42.254;23.102;2022-10-19T04:47:55;96441.47;;;3.62;69.92
71621;BME280;59471;42.254;23.102;2022-10-19T04:50:22;96441.75;;;3.36;71.23
71621;BME280;59471;42.254;23.102;2022-10-19T04:52:48;96439.38;;;3.33;70.37
71621;BME280;59471;42.254;23.102;2022-10-19T04:55:13;96433.16;;;3.47;69.88
71621;BME280;59471;42.254;23.102;2022-10-19T04:57:39;96436.97;;;3.75;69.39
71621;BME280;59471;42.254;23.102;2022-10-19T05:00:05;96434.84;;;3.91;67.87
71621;BME280;59471;42.254;23.102;2022-10-19T05:02:31;96435.91;;;3.78;68.31
71621;BME280;59471;42.254;23.102;2022-10-19T05:04:57;96434.44;;;3.41;70.61
71621;BME280;59471;42.254;23.102;2022-10-19T05:07:22;96432.53;;;3.43;70.01
71621;BME280;59471;42.254;23.102;2022-10-19T05:09:48;96424.81;;;3.32;70.66
71621;BME280;59471;42.254;23.102;2022-10-19T05:12:13;96424.56;;;3.24;71.34
71621;BME280;59471;42.254;23.102;2022-10-19T05:14:39;96433.72;;;3.73;69.26
71621;BME280;59471;42.254;23.102;2022-10-19T05:17:04;96440.03;;;3.80;68.53
71621;BME280;59471;42.254;23.102;2022-10-19T05:19:30;96432.66;;;3.31;68.45
71621;BME280;59471;42.254;23.102;2022-10-19T05:21:55;96429.50;;;3.16;69.93
71621;BME280;59471;42.254;23.102;2022-10-19T05:24:21;96429.38;;;3.06;70.45
71621;BME280;59471;42.254;23.102;2022-10-19T05:26:46;96430.22;;;3.29;68.88
71621;BME280;59471;42.254;23.102;2022-10-19T05:29:12;96430.91;;;2.97;70.43
71621;BME280;59471;42.254;23.102;2022-10-19T05:31:39;96430.66;;;3.12;71.46
71621;BME280;59471;42.254;23.102;2022-10-19T05:34:04;96431.03;;;3.07;71.88
71621;BME280;59471;42.254;23.102;2022-10-19T05:36:35;96427.75;;;3.16;71.23
71621;BME280;59471;42.254;23.102;2022-10-19T05:39:05;96432.81;;;3.29;73.16
71621;BME280;59471;42.254;23.102;2022-10-19T05:41:33;96431.22;;;3.71;69.99
71621;BME280;59471;42.254;23.102;2022-10-19T05:44:00;96435.38;;;3.52;70.51
71621;BME280;59471;42.254;23.102;2022-10-19T05:46:28;96436.75;;;3.78;69.76
71621;BME280;59471;42.254;23.102;2022-10-19T05:48:58;96438.03;;;3.95;70.00
71621;BME280;59471;42.254;23.102;2022-10-19T05:51:25;96438.69;;;4.40;67.25
71621;BME280;59471;42.254;23.102;2022-10-19T05:53:53;96430.81;;;3.99;69.15
71621;BME280;59471;42.254;23.102;2022-10-19T05:56:21;96434.81;;;4.03;69.58
71621;BME280;59471;42.254;23.102;2022-10-19T05:58:49;96427.00;;;3.82;71.24
71621;BME280;59471;42.254;23.102;2022-10-19T06:01:16;96429.47;;;4.48;67.47
71621;BME280;59471;42.254;23.102;2022-10-19T06:03:43;96427.38;;;4.62;66.74
71621;BME280;59471;42.254;23.102;2022-10-19T06:06:09;96425.53;;;4.32;66.91
71621;BME280;59471;42.254;23.102;2022-10-19T06:08:36;96430.59;;;3.90;68.53
71621;BME280;59471;42.254;23.102;2022-10-19T06:11:11;96424.19;;;3.51;69.57
71621;BME280;59471;42.254;23.102;2022-10-19T06:13:41;96430.06;;;3.64;70.12
71621;BME280;59471;42.254;23.102;2022-10-19T06:16:08;96433.09;;;3.92;68.94
71621;BME280;59471;42.254;23.102;2022-10-19T06:18:36;96436.63;;;3.91;69.02
71621;BME280;59471;42.254;23.102;2022-10-19T06:21:07;96433.84;;;4.15;68.96
71621;BME280;59471;42.254;23.102;2022-10-19T06:23:35;96437.41;;;4.35;67.81
71621;BME280;59471;42.254;23.102;2022-10-19T06:26:08;96435.16;;;4.41;67.53
71621;BME280;59471;42.254;23.102;2022-10-19T06:28:36;96432.72;;;4.61;67.18
71621;BME280;59471;42.254;23.102;2022-10-19T06:31:03;96432.56;;;4.62;67.66
71621;BME280;59471;42.254;23.102;2022-10-19T06:33:29;96430.03;;;4.93;66.69
71621;BME280;59471;42.254;23.102;2022-10-19T06:35:56;96433.59;;;5.23;65.36
71621;BME280;59471;42.254;23.102;2022-10-19T06:38:29;96432.75;;;5.43;64.95
71621;BME280;59471;42.254;23.102;2022-10-19T06:40:57;96433.63;;;5.32;65.71
71621;BME280;59471;42.254;23.102;2022-10-19T06:43:23;96434.72;;;5.61;64.20
71621;BME280;59471;42.254;23.102;2022-10-19T06:45:49;96436.53;;;5.79;64.47
71621;BME280;59471;42.254;23.102;2022-10-19T06:48:15;96434.47;;;5.73;64.37
71621;BME280;59471;42.254;23.102;2022-10-19T06:50:41;96435.88;;;5.77;64.62
71621;BME280;59471;42.254;23.102;2022-10-19T06:53:06;96429.38;;;5.93;64.19
71621;BME280;59471;42.254;23.102;2022-10-19T06:55:32;96436.78;;;6.17;64.22
71621;BME280;59471;42.254;23.102;2022-10-19T06:57:58;96434.34;;;6.15;63.77
71621;BME280;59471;42.254;23.102;2022-10-19T07:00:29;96433.47;;;6.05;63.77
71621;BME280;59471;42.254;23.102;2022-10-19T07:02:57;96433.25;;;6.28;63.14
71621;BME280;59471;42.254;23.102;2022-10-19T07:05:23;96432.94;;;6.11;64.41
71621;BME280;59471;42.254;23.102;2022-10-19T07:07:48;96425.66;;;6.05;64.10
71621;BME280;59471;42.254;23.102;2022-10-19T07:10:14;96427.34;;;6.45;63.23
71621;BME280;59471;42.254;23.102;2022-10-19T07:12:39;96422.16;;;6.45;62.73
71621;BME280;59471;42.254;23.102;2022-10-19T07:15:05;96418.28;;;6.88;62.23
71621;BME280;59471;42.254;23.102;2022-10-19T07:17:31;96415.09;;;7.04;61.03
71621;BME280;59471;42.254;23.102;2022-10-19T07:19:56;96415.91;;;7.04;62.43
71621;BME280;59471;42.254;23.102;2022-10-19T07:22:22;96411.19;;;7.17;62.68
71621;BME280;59471;42.254;23.102;2022-10-19T07:24:48;96405.47;;;7.51;61.07
71621;BME280;59471;42.254;23.102;2022-10-19T07:27:13;96400.59;;;7.56;62.41
71621;BME280;59471;42.254;23.102;2022-10-19T07:29:39;96397.28;;;7.64;60.69
71621;BME280;59471;42.254;23.102;2022-10-19T07:32:04;96402.69;;;7.53;61.63
71621;BME280;59471;42.254;23.102;2022-10-19T07:34:30;96397.88;;;7.58;60.67
71621;BME280;59471;42.254;23.102;2022-10-19T07:36:56;96390.19;;;7.56;60.92
71621;BME280;59471;42.254;23.102;2022-10-19T07:39:21;96397.28;;;7.64;60.95
71621;BME280;59471;42.254;23.102;2022-10-19T07:41:47;96385.81;;;8.02;59.69
71621;BME280;59471;42.254;23.102;2022-10-19T07:44:13;96389.31;;;8.11;59.48
71621;BME280;59471;42.254;23.102;2022-10-19T07:46:40;96380.44;;;8.22;61.41
71621;BME280;59471;42.254;23.102;2022-10-19T07:49:13;96377.06;;;8.39;60.67
71621;BME280;59471;42.254;23.102;2022-10-19T07:51:40;96375.16;;;8.49;59.24
71621;BME280;59471;42.254;23.102;2022-10-19T07:54:06;96376.78;;;8.94;58.46
71621;BME280;59471;42.254;23.102;2022-10-19T07:56:33;96372.38;;;9.21;57.02
71621;BME280;59471;42.254;23.102;2022-10-19T07:58:59;96364.97;;;9.08;56.35
71621;BME280;59471;42.254;23.102;2022-10-19T08:01:28;96367.03;;;9.31;56.20
71621;BME280;59471;42.254;23.102;2022-10-19T08:03:59;96359.03;;;9.32;55.56
71621;BME280;59471;42.254;23.102;2022-10-19T08:06:25;96353.91;;;9.57;55.65
71621;BME280;59471;42.254;23.102;2022-10-19T08:08:52;96347.63;;;9.84;55.25
71621;BME280;59471;42.254;23.102;2022-10-19T08:13:47;96339.97;;;10.07;54.83
71621;BME280;59471;42.254;23.102;2022-10-19T08:16:36;96333.13;;;10.30;52.86
71621;BME280;59471;42.254;23.102;2022-10-19T08:19:09;96328.88;;;10.37;53.98
71621;BME280;59471;42.254;23.102;2022-10-19T08:21:37;96330.19;;;10.58;53.21
71621;BME280;59471;42.254;23.102;2022-10-19T08:24:05;96318.84;;;10.74;53.07
71621;BME280;59471;42.254;23.102;2022-10-19T08:26:33;96312.16;;;10.79;53.75
71621;BME280;59471;42.254;23.102;2022-10-19T08:29:05;96313.72;;;10.97;52.95
71621;BME280;59471;42.254;23.102;2022-10-19T08:31:38;96308.13;;;11.08;52.31
71621;BME280;59471;42.254;23.102;2022-10-19T08:34:05;96305.13;;;11.27;50.90
71621;BME280;59471;42.254;23.102;2022-10-19T08:36:31;96298.16;;;11.43;50.20
71621;BME280;59471;42.254;23.102;2022-10-19T08:39:00;96294.75;;;11.34;52.30
71621;BME280;59471;42.254;23.102;2022-10-19T08:41:36;96286.56;;;11.68;49.67
71621;BME280;59471;42.254;23.102;2022-10-19T08:44:44;96286.56;;;11.68;49.76
71621;BME280;59471;42.254;23.102;2022-10-19T08:50:28;96272.97;;;11.96;48.55
71621;BME280;59471;42.254;23.102;2022-10-19T08:53:06;96275.50;;;12.04;47.42
71621;BME280;59471;42.254;23.102;2022-10-19T08:55:47;96266.53;;;12.21;48.18
71621;BME280;59471;42.254;23.102;2022-10-19T08:58:39;96267.38;;;12.37;46.66
71621;BME280;59471;42.254;23.102;2022-10-19T09:04:22;96267.88;;;12.55;46.47
71621;BME280;59471;42.254;23.102;2022-10-19T09:09:55;96271.59;;;12.75;46.02
71621;BME280;59471;42.254;23.102;2022-10-19T09:12:36;96267.34;;;12.74;47.45
71621;BME280;59471;42.254;23.102;2022-10-19T09:15:17;96265.28;;;12.99;46.38
71621;BME280;59471;42.254;23.102;2022-10-19T09:17:49;96254.81;;;13.36;46.14
71621;BME280;59471;42.254;23.102;2022-10-19T09:22:43;96248.38;;;13.75;46.51
71621;BME280;59471;42.254;23.102;2022-10-19T09:25:18;96244.13;;;13.95;43.57
71621;BME280;59471;42.254;23.102;2022-10-19T09:27:47;96241.16;;;14.05;43.62
71621;BME280;59471;42.254;23.102;2022-10-19T09:30:22;96240.53;;;14.03;44.13
71621;BME280;59471;42.254;23.102;2022-10-19T09:32:51;96245.22;;;14.29;44.71
71621;BME280;59471;42.254;23.102;2022-10-19T09:35:32;96232.41;;;14.47;43.41
71621;BME280;59471;42.254;23.102;2022-10-19T09:38:01;96233.75;;;14.65;43.04
71621;BME280;59471;42.254;23.102;2022-10-19T09:40:29;96228.09;;;14.68;43.86
71621;BME280;59471;42.254;23.102;2022-10-19T09:42:55;96216.91;;;15.00;43.78
71621;BME280;59471;42.254;23.102;2022-10-19T09:48:10;96210.47;;;15.16;43.08
71621;BME280;59471;42.254;23.102;2022-10-19T09:50:42;96212.59;;;15.34;42.17
71621;BME280;59471;42.254;23.102;2022-10-19T09:53:17;96211.66;;;15.55;41.11
71621;BME280;59471;42.254;23.102;2022-10-19T09:55:47;96206.97;;;15.57;42.27
71621;BME280;59471;42.254;23.102;2022-10-19T09:58:17;96205.44;;;15.89;39.79
71621;BME280;59471;42.254;23.102;2022-10-19T10:00:52;96200.97;;;15.96;40.47
71621;BME280;59471;42.254;23.102;2022-10-19T10:05:56;96192.88;;;16.18;39.08
71621;BME280;59471;42.254;23.102;2022-10-19T10:08:26;96186.75;;;16.37;40.16
71621;BME280;59471;42.254;23.102;2022-10-19T10:10:56;96180.25;;;16.40;39.38
71621;BME280;59471;42.254;23.102;2022-10-19T10:13:29;96184.25;;;16.69;37.38
71621;BME280;59471;42.254;23.102;2022-10-19T10:15:57;96176.47;;;16.94;38.76
71621;BME280;59471;42.254;23.102;2022-10-19T10:18:25;96178.88;;;17.09;37.21
71621;BME280;59471;42.254;23.102;2022-10-19T10:23:27;96171.84;;;17.34;36.34
71621;BME280;59471;42.254;23.102;2022-10-19T10:25:57;96167.25;;;17.10;36.43
71621;BME280;59471;42.254;23.102;2022-10-19T10:28:26;96167.34;;;17.35;35.92
71621;BME280;59471;42.254;23.102;2022-10-19T10:30:58;96156.69;;;17.48;37.28
71621;BME280;59471;42.254;23.102;2022-10-19T10:33:27;96157.59;;;17.67;37.02
71621;BME280;59471;42.254;23.102;2022-10-19T10:35:56;96141.03;;;17.78;33.81
71621;BME280;59471;42.254;23.102;2022-10-19T10:38:31;96144.69;;;17.77;32.90
71621;BME280;59471;42.254;23.102;2022-10-19T10:41:04;96136.31;;;18.05;32.73
71621;BME280;59471;42.254;23.102;2022-10-19T10:43:37;96130.09;;;18.18;33.12
71621;BME280;59471;42.254;23.102;2022-10-19T10:46:20;96122.63;;;18.09;33.75
71621;BME280;59471;42.254;23.102;2022-10-19T10:49:01;96120.41;;;18.30;34.35
71621;BME280;59471;42.254;23.102;2022-10-19T10:54:27;96113.44;;;18.55;32.65
71621;BME280;59471;42.254;23.102;2022-10-19T11:05:22;96084.78;;;18.82;32.74
71621;BME280;59471;42.254;23.102;2022-10-19T11:08:14;96085.81;;;18.81;33.81
71621;BME280;59471;42.254;23.102;2022-10-19T11:10:58;96087.09;;;19.08;32.32
71621;BME280;59471;42.254;23.102;2022-10-19T11:16:30;96068.28;;;19.10;31.91
71621;BME280;59471;42.254;23.102;2022-10-19T11:33:26;96045.66;;;19.49;33.21
71621;BME280;59471;42.254;23.102;2022-10-19T11:35:58;96034.97;;;19.26;34.01
71621;BME280;59471;42.254;23.102;2022-10-19T11:44:36;96023.75;;;19.89;31.68
71621;BME280;59471;42.254;23.102;2022-10-19T11:50:11;96012.91;;;20.02;32.82
71621;BME280;59471;42.254;23.102;2022-10-19T12:01:56;95991.94;;;20.29;31.00
71621;BME280;59471;42.254;23.102;2022-10-19T12:04:51;95992.94;;;20.52;31.76
71621;BME280;59471;42.254;23.102;2022-10-19T12:07:39;95997.34;;;20.46;30.54
71621;BME280;59471;42.254;23.102;2022-10-19T12:12:54;95985.44;;;20.77;30.55
71621;BME280;59471;42.254;23.102;2022-10-19T12:15:36;95979.91;;;20.79;29.21
71621;BME280;59471;42.254;23.102;2022-10-19T12:18:13;95981.88;;;21.00;29.75
71621;BME280;59471;42.254;23.102;2022-10-19T12:20:56;95977.91;;;20.86;29.85
71621;BME280;59471;42.254;23.102;2022-10-19T12:23:31;95987.56;;;20.75;30.53
71621;BME280;59471;42.254;23.102;2022-10-19T12:26:01;95978.56;;;20.65;29.84
71621;BME280;59471;42.254;23.102;2022-10-19T12:28:31;95975.91;;;20.93;29.56
71621;BME280;59471;42.254;23.102;2022-10-19T12:31:00;95973.81;;;20.95;28.87
71621;BME280;59471;42.254;23.102;2022-10-19T12:36:25;95967.81;;;20.88;29.46
71621;BME280;59471;42.254;23.102;2022-10-19T12:45:35;95964.53;;;20.98;27.30
71621;BME280;59471;42.254;23.102;2022-10-19T12:53:49;95962.19;;;21.01;26.06
71621;BME280;59471;42.254;23.102;2022-10-19T12:56:24;95955.91;;;21.08;25.00
71621;BME280;59471;42.254;23.102;2022-10-19T12:58:57;95946.88;;;21.09;25.69
71621;BME280;59471;42.254;23.102;2022-10-19T13:01:41;95959.97;;;21.27;24.42
71621;BME280;59471;42.254;23.102;2022-10-19T13:04:17;95953.03;;;21.26;23.58
71621;BME280;59471;42.254;23.102;2022-10-19T13:09:37;95951.97;;;21.27;25.15
71621;BME280;59471;42.254;23.102;2022-10-19T13:14:50;95948.94;;;21.35;24.21
71621;BME280;59471;42.254;23.102;2022-10-19T13:38:30;95945.59;;;21.62;24.13
71621;BME280;59471;42.254;23.102;2022-10-19T13:50:36;95938.34;;;21.40;24.82
71621;BME280;59471;42.254;23.102;2022-10-19T14:07:25;95933.00;;;21.06;26.19
71621;BME280;59471;42.254;23.102;2022-10-19T14:10:11;95921.88;;;21.10;26.54
71621;BME280;59471;42.254;23.102;2022-10-19T14:12:45;95923.16;;;21.07;26.49
71621;BME280;59471;42.254;23.102;2022-10-19T14:17:43;95925.50;;;21.03;26.03
71621;BME280;59471;42.254;23.102;2022-10-19T14:23:00;95920.16;;;21.03;26.98
71621;BME280;59471;42.254;23.102;2022-10-19T14:25:57;95913.16;;;20.97;26.96
71621;BME280;59471;42.254;23.102;2022-10-19T14:28:27;95915.88;;;21.02;26.91
71621;BME280;59471;42.254;23.102;2022-10-19T14:31:17;95910.88;;;20.89;27.55
71621;BME280;59471;42.254;23.102;2022-10-19T14:33:47;95910.53;;;20.86;27.26
71621;BME280;59471;42.254;23.102;2022-10-19T14:36:21;95907.19;;;20.90;27.28
71621;BME280;59471;42.254;23.102;2022-10-19T14:38:52;95915.66;;;20.87;27.21
71621;BME280;59471;42.254;23.102;2022-10-19T14:41:34;95914.97;;;20.80;27.89
71621;BME280;59471;42.254;23.102;2022-10-19T14:44:17;95915.75;;;20.64;28.72
71621;BME280;59471;42.254;23.102;2022-10-19T14:47:25;95915.59;;;20.70;27.97
71621;BME280;59471;42.254;23.102;2022-10-19T14:49:51;95910.91;;;20.60;28.04
71621;BME280;59471;42.254;23.102;2022-10-19T14:52:33;95912.91;;;20.53;27.83
71621;BME280;59471;42.254;23.102;2022-10-19T14:55:23;95913.91;;;20.24;28.31
71621;BME280;59471;42.254;23.102;2022-10-19T14:57:58;95918.22;;;20.13;29.04
71621;BME280;59471;42.254;23.102;2022-10-19T15:00:23;95910.72;;;19.98;29.27
71621;BME280;59471;42.254;23.102;2022-10-19T15:02:57;95914.91;;;19.94;29.38
71621;BME280;59471;42.254;23.102;2022-10-19T15:05:27;95908.25;;;19.80;29.15
71621;BME280;59471;42.254;23.102;2022-10-19T15:07:55;95910.06;;;19.79;29.61
71621;BME280;59471;42.254;23.102;2022-10-19T15:10:27;95918.16;;;19.73;29.92
71621;BME280;59471;42.254;23.102;2022-10-19T15:13:04;95911.84;;;19.74;29.63
71621;BME280;59471;42.254;23.102;2022-10-19T15:15:32;95910.66;;;19.58;30.61
71621;BME280;59471;42.254;23.102;2022-10-19T15:20:36;95917.56;;;19.35;31.03
71621;BME280;59471;42.254;23.102;2022-10-19T15:26:11;95921.56;;;18.91;32.35
71621;BME280;59471;42.254;23.102;2022-10-19T15:29:19;95925.84;;;18.92;32.24
71621;BME280;59471;42.254;23.102;2022-10-19T15:31:52;95926.63;;;18.81;32.58
71621;BME280;59471;42.254;23.102;2022-10-19T15:34:27;95935.63;;;18.80;33.38
71621;BME280;59471;42.254;23.102;2022-10-19T15:36:58;95939.91;;;18.62;33.36
71621;BME280;59471;42.254;23.102;2022-10-19T15:39:32;95934.88;;;18.42;33.76
71621;BME280;59471;42.254;23.102;2022-10-19T15:42:32;95950.63;;;18.37;33.66
71621;BME280;59471;42.254;23.102;2022-10-19T15:45:03;95944.69;;;18.23;34.20
71621;BME280;59471;42.254;23.102;2022-10-19T15:50:42;95969.88;;;18.14;34.43
71621;BME280;59471;42.254;23.102;2022-10-19T15:53:09;95972.63;;;18.08;34.38
71621;BME280;59471;42.254;23.102;2022-10-19T15:55:34;95969.16;;;18.07;34.71
71621;BME280;59471;42.254;23.102;2022-10-19T15:58:00;95978.13;;;18.06;34.25
71621;BME280;59471;42.254;23.102;2022-10-19T16:00:27;95985.56;;;17.97;34.55
71621;BME280;59471;42.254;23.102;2022-10-19T16:02:53;95985.47;;;17.86;35.22
71621;BME280;59471;42.254;23.102;2022-10-19T16:05:19;95990.63;;;17.80;34.95
71621;BME280;59471;42.254;23.102;2022-10-19T16:07:45;95999.38;;;17.81;35.29
71621;BME280;59471;42.254;23.102;2022-10-19T16:10:14;96009.81;;;17.76;35.39
71621;BME280;59471;42.254;23.102;2022-10-19T16:12:42;96014.13;;;17.70;35.41
71621;BME280;59471;42.254;23.102;2022-10-19T16:15:12;96013.31;;;17.45;37.08
71621;BME280;59471;42.254;23.102;2022-10-19T16:17:45;96021.47;;;17.43;36.24